KFCS/FCS METAR and TAF weather

Enter ICAO airport designator
Station Type Date Time Source
KFCS METAR 2022/01/25 04:58 UTC NOAA

KFCS 250458Z AUTO 00000KT 10SM OVC130 M00/M12 A2993 RMK AO2 SLP163 T10011121 $


Station Type Date Time Source
KFCS Decoded METAR 2022/01/25 04:58 UTC NOAA

Fort Carson, CO, United States (KFCS) 38-42N 104-46W 1789M
Jan 24, 2022 - 11:58 PM EST / 2022.01.25 0458 UTC
Wind: Calm:0
Visibility: 10 mile(s):0
Sky conditions: overcast
Temperature: 31.8 F (-0.1 C)
Dew Point: 10.2 F (-12.1 C)
Relative Humidity: 39%
Pressure (altimeter): 29.93 in. Hg (1013 hPa)
ob: KFCS 250458Z AUTO 00000KT 10SM OVC130 M00/M12 A2993 RMK AO2 SLP163 T10011121
cycle: 5

Station Type Date Time Source
KFCS TAF 2022/01/25 05:03 UTC NOAA

TAF KFCS 250500Z 2505/2611 VRB06KT 9999 FEW045 QNH2991INS
BECMG 2514/2515 01006KT 9999 BKN022 QNH2999INS
BECMG 2517/2518 02012KT 9000 -SN BKN023 620232 QNH3009INS
BECMG 2519/2520 03012G18KT 9999 NSW FEW023 510063 QNH3011INS
BECMG 2601/2602 VRB06KT 9999 SCT024 QNH3021INS
BECMG 2604/2605 VRB06KT 9999 BKN016 QNH3016INS TX02/2520Z TNM04/2605Z

Example: see airport list